Accueil
METAR-TAF:

METAR-TAF

Aéroports :

Aéroport de Florence-Peretola

Florence, Italie

latitude: 43-48N, longitude: 011-12E, altitude: 40 m

Observation

Le bulletin a été fait il y a 33 minutes, à 17:50 UTC
Vent 11 kt de nord-est, variant entre nord et est/nord-est
Température 11°C
Humidité 43%
Pression 1019 hPa
Visibilité 10 km ou plus
pas de nuages en-dessous de 1500 mètres et pas de cumulonimbus.

METAR: LIRQ 261750Z 04011KT 360V070 CAVOK 11/M01 Q1019

Heure: 19:23 (18:23 UTC)

Prévision

Le bulletin a été fait il y a 1 heure et 23 minutes, à 17:00 UTC
Prévision valable du 26 à 18 UTC au 27 à 18 UTC
Vent 15 kt de nord-est
Visibilité 10 km ou plus
Nuages épars à une hauteur de 3000 ft
Temporairement
du 26 à 18 UTC au 26 à 22 UTC
Vent 20 kt de nord-est avec des rafales jusqu'à 35 kt

TAF: LIRQ 261700Z 2618/2718 04015KT 9999 SCT030 TEMPO 2618/2622 04020G35KT

Observations et prévisions météorologiques de plus de 4000 aéroports (messages METAR et TAF).

Les stations disponibles sont représentées par des disques jaunes et rouges sur la carte.

Passer la souris dessus pour voir le nom de la station.

Cliquer dessus pour voir les observations et prévisions météorologiques.

Pour changer de carte: cliquez sur les boutons verts avec une croix noire pour zoomer, sur le bouton vert avec un tiret pour effectuer un zoom arrière, ou sur les flèches vertes pour les cartes adjacentes.


METAR-TAF: